createdAt,value
2023-05-21T00:05:55.862Z,79.40
2023-05-21T00:16:00.159Z,80.07
2023-05-21T00:26:02.940Z,80.40
2023-05-21T00:36:07.759Z,80.28
2023-05-21T00:46:22.280Z,80.69
2023-05-21T00:56:27.679Z,81.81
2023-05-21T01:06:34.537Z,82.60
2023-05-21T01:16:40.953Z,83.00
2023-05-21T01:26:46.599Z,83.72
2023-05-21T01:36:54.581Z,84.59
2023-05-21T01:47:00.409Z,86.21
2023-05-21T01:57:03.850Z,86.50
2023-05-21T02:07:08.185Z,86.41
2023-05-21T02:17:10.863Z,86.17
2023-05-21T02:27:17.705Z,85.95
2023-05-21T02:37:20.574Z,85.67
2023-05-21T02:47:25.479Z,85.21
2023-05-21T02:57:28.245Z,85.16
2023-05-21T03:07:32.359Z,85.43
2023-05-21T03:17:35.144Z,85.93
2023-05-21T03:27:39.386Z,86.15
2023-05-21T03:37:42.056Z,86.46
2023-05-21T03:47:46.129Z,86.57
2023-05-21T03:57:49.011Z,86.43
2023-05-21T04:07:52.997Z,86.83
2023-05-21T04:17:55.721Z,87.02
2023-05-21T04:27:59.939Z,86.41
2023-05-21T04:38:04.189Z,85.72
2023-05-21T04:48:08.360Z,85.95
2023-05-21T04:58:11.916Z,86.19
2023-05-21T05:08:16.308Z,85.84
2023-05-21T05:18:19.013Z,85.25
2023-05-21T05:28:23.206Z,84.70
2023-05-21T05:38:26.644Z,83.87
2023-05-21T05:48:31.016Z,83.10
2023-05-21T05:58:33.880Z,82.54
2023-05-21T06:08:38.382Z,81.23
2023-05-21T06:18:41.229Z,79.09
2023-05-21T06:28:45.224Z,79.67
2023-05-21T06:38:47.872Z,78.87
2023-05-21T06:48:51.944Z,78.60
2023-05-21T06:58:54.651Z,78.08
2023-05-21T07:08:58.705Z,76.97
2023-05-21T07:19:01.475Z,76.91
2023-05-21T07:29:05.514Z,75.25
2023-05-21T07:39:08.162Z,74.48
2023-05-21T07:49:16.519Z,74.06
2023-05-21T07:59:19.278Z,73.79
2023-05-21T08:09:23.335Z,71.84
2023-05-21T08:19:26.007Z,72.29
2023-05-21T08:29:30.038Z,70.91
2023-05-21T08:39:32.744Z,70.95
2023-05-21T08:49:37.430Z,69.90
2023-05-21T08:59:44.194Z,70.13
2023-05-21T09:09:53.976Z,68.58
2023-05-21T09:20:09.547Z,65.67
2023-05-21T09:30:15.045Z,66.00
2023-05-21T09:40:19.079Z,64.56
2023-05-21T09:50:26.896Z,63.60
2023-05-21T10:00:29.823Z,61.46
2023-05-21T10:10:34.033Z,61.91
2023-05-21T10:20:37.648Z,62.59
2023-05-21T10:30:43.413Z,60.76
2023-05-21T10:40:46.843Z,61.64
2023-05-21T10:51:21.579Z,61.49
2023-05-21T11:01:26.867Z,60.26
2023-05-21T11:11:44.776Z,59.64
2023-05-21T11:21:52.077Z,59.51
2023-05-21T11:32:02.739Z,57.96
2023-05-21T11:42:05.946Z,57.54
2023-05-21T11:52:11.729Z,57.06
2023-05-21T12:02:17.152Z,54.03
2023-05-21T12:12:22.757Z,49.92
2023-05-21T12:22:27.845Z,45.43
2023-05-21T12:32:32.356Z,38.90
2023-05-21T12:42:35.659Z,37.95
2023-05-21T12:52:42.901Z,37.85
2023-05-21T13:02:47.415Z,34.72
2023-05-21T13:12:51.586Z,39.64
2023-05-21T13:22:54.721Z,39.05
2023-05-21T13:32:58.810Z,39.58
2023-05-21T13:43:01.689Z,38.12
2023-05-21T13:53:05.771Z,38.87
2023-05-21T14:03:09.808Z,37.89
2023-05-21T14:13:19.542Z,39.54
2023-05-21T14:23:22.586Z,41.14
2023-05-21T14:33:26.788Z,41.49
2023-05-21T14:43:29.559Z,42.68
2023-05-21T14:53:33.724Z,43.54
2023-05-21T15:03:36.547Z,43.19
2023-05-21T15:13:41.081Z,44.44
2023-05-21T15:23:43.845Z,44.84
2023-05-21T15:33:47.913Z,43.16
2023-05-21T15:43:50.641Z,43.08
2023-05-21T15:53:54.865Z,45.20
2023-05-21T16:03:57.785Z,46.78
2023-05-21T16:14:02.060Z,50.06
2023-05-21T16:24:05.132Z,51.46
2023-05-21T16:34:09.150Z,53.43
2023-05-21T16:44:11.936Z,54.85
2023-05-21T16:54:16.036Z,55.44
2023-05-21T17:04:18.684Z,56.45
2023-05-21T17:14:33.193Z,57.47
2023-05-21T17:24:37.366Z,58.45
2023-05-21T17:34:41.501Z,59.74
2023-05-21T17:44:44.440Z,61.05
2023-05-21T17:54:48.512Z,62.74
2023-05-21T18:04:51.237Z,64.69
2023-05-21T18:14:55.296Z,66.15
2023-05-21T18:24:58.073Z,67.24
2023-05-21T18:35:02.341Z,67.94
2023-05-21T18:45:10.115Z,69.06
2023-05-21T18:55:14.862Z,70.63
2023-05-21T19:05:18.934Z,71.29
2023-05-21T19:15:23.338Z,72.48
2023-05-21T19:25:26.482Z,72.82
2023-05-21T19:35:31.221Z,73.41
2023-05-21T19:45:33.978Z,74.27
2023-05-21T19:55:38.487Z,76.08
2023-05-21T20:05:41.394Z,76.70
2023-05-21T20:15:45.702Z,76.57
2023-05-21T20:25:48.604Z,77.05
2023-05-21T20:35:53.000Z,77.98
2023-05-21T20:45:59.592Z,78.84
2023-05-21T20:56:08.283Z,79.21
2023-05-21T21:06:11.285Z,79.70
2023-05-21T21:16:16.325Z,79.39
2023-05-21T21:26:19.313Z,79.00
2023-05-21T21:36:23.674Z,78.75
2023-05-21T21:46:26.836Z,78.75
2023-05-21T21:56:31.288Z,78.54
2023-05-21T22:06:34.049Z,78.42
2023-05-21T22:16:38.188Z,78.68
2023-05-21T22:26:40.857Z,78.59
2023-05-21T22:36:45.128Z,78.74
2023-05-21T22:46:49.278Z,79.16
2023-05-21T22:56:53.375Z,79.74
2023-05-21T23:06:56.035Z,79.84
2023-05-21T23:17:02.466Z,80.58
2023-05-21T23:27:05.710Z,80.78
2023-05-21T23:37:09.716Z,81.43
2023-05-21T23:47:12.481Z,81.63
2023-05-21T23:57:16.560Z,82.04
